Time;durP1;ratioP1;P1;durP2;ratioP2;P2;SDS_P1;SDS_P2;PMS_P1;PMS_P2;Temp;Humidity;BMP_temperature;BMP_pressure;BME280_temperature;BME280_humidity;BME280_pressure;Samples;Min_cycle;Max_cycle;Signal;HPM_P1;HPM_P2
2022/11/13 00:02:09;;;;;;;18.50;13.50;;;;;;;4.05;96.46;103140.78;5006525;28;20198;-78
2022/11/13 00:04:53;;;;;;;16.43;12.70;;;;;;;4.07;96.31;103140.91;5015876;28;20754;-78
2022/11/13 00:07:37;;;;;;;17.23;13.07;;;;;;;4.04;96.44;103139.03;5015282;28;20237;-77
2022/11/13 00:10:21;;;;;;;15.30;13.07;;;;;;;4.00;96.65;103134.47;5012796;28;20210;-77
2022/11/13 00:13:05;;;;;;;15.87;13.23;;;;;;;4.02;96.65;103127.00;5014993;28;20716;-77
2022/11/13 00:16:00;;;;;;;16.23;12.53;;;;;;;3.99;96.43;103121.66;5014724;28;20867;-77
2022/11/13 00:18:44;;;;;;;16.57;12.47;;;;;;;4.04;96.41;103125.44;5015326;28;20257;-77
2022/11/13 00:21:29;;;;;;;16.10;12.97;;;;;;;4.01;96.56;103125.22;5013681;28;20260;-78
2022/11/13 00:24:12;;;;;;;16.80;12.73;;;;;;;4.04;96.63;103117.84;5014189;28;20218;-77
2022/11/13 00:26:56;;;;;;;18.63;12.73;;;;;;;4.07;96.54;103115.56;5014715;28;20592;-77
2022/11/13 00:29:40;;;;;;;20.60;14.13;;;;;;;4.04;96.58;103116.22;5010367;28;20218;-78
2022/11/13 00:32:25;;;;;;;17.40;13.47;;;;;;;4.03;97.11;103118.63;5009451;28;20306;-77
2022/11/13 00:35:09;;;;;;;16.87;13.60;;;;;;;4.02;96.46;103116.84;5010903;28;20357;-77
2022/11/13 00:37:53;;;;;;;17.73;13.53;;;;;;;4.01;96.88;103113.41;5013450;28;20218;-77
2022/11/13 00:40:37;;;;;;;16.93;13.20;;;;;;;4.01;97.07;103115.09;5010180;28;20198;-77
2022/11/13 00:43:21;;;;;;;17.17;13.47;;;;;;;4.01;96.51;103110.03;5013727;28;20218;-77
2022/11/13 00:46:06;;;;;;;15.70;12.90;;;;;;;3.97;96.72;103113.06;5014438;28;20846;-77
2022/11/13 00:48:50;;;;;;;16.70;13.27;;;;;;;3.97;97.20;103116.50;5014679;28;20252;-77
2022/11/13 00:51:34;;;;;;;16.03;13.50;;;;;;;4.00;97.08;103116.72;5013865;28;20202;-77
2022/11/13 00:54:18;;;;;;;18.13;13.57;;;;;;;3.97;97.05;103108.91;5014100;28;20249;-77
2022/11/13 00:57:02;;;;;;;15.43;12.73;;;;;;;3.96;96.70;103114.69;5011332;28;20930;-76
2022/11/13 00:59:46;;;;;;;17.67;13.80;;;;;;;3.95;96.65;103110.41;5009955;28;20752;-77
2022/11/13 01:02:30;;;;;;;19.97;13.40;;;;;;;3.98;96.95;103113.19;5009520;28;20201;-77
2022/11/13 01:05:14;;;;;;;19.33;13.93;;;;;;;4.00;96.70;103115.84;5015238;28;20305;-76
2022/11/13 01:07:58;;;;;;;16.00;13.53;;;;;;;4.00;97.54;103105.72;5014477;28;20341;-78
2022/11/13 01:10:46;;;;;;;17.13;13.93;;;;;;;4.00;97.08;103105.72;5015027;28;20198;-77
2022/11/13 01:13:30;;;;;;;18.33;14.40;;;;;;;3.98;97.43;103098.00;5014579;28;20195;-77
2022/11/13 01:16:15;;;;;;;19.43;14.17;;;;;;;3.97;97.82;103098.75;5013691;28;20201;-78
2022/11/13 01:18:59;;;;;;;19.43;14.20;;;;;;;3.99;97.75;103099.75;5014546;28;20668;-78
2022/11/13 01:21:43;;;;;;;17.57;13.87;;;;;;;3.99;97.73;103086.19;5006131;28;20253;-77
2022/11/13 01:24:26;;;;;;;20.53;14.67;;;;;;;3.97;97.64;103093.69;5013233;28;20272;-77
2022/11/13 01:27:12;;;;;;;18.43;14.60;;;;;;;3.99;97.67;103097.22;5013736;28;20311;-77
2022/11/13 01:29:55;;;;;;;19.50;14.60;;;;;;;3.96;97.95;103088.50;5008656;28;20269;-77
2022/11/13 01:32:39;;;;;;;18.97;15.00;;;;;;;3.95;97.81;103082.53;5010458;28;20651;-77
2022/11/13 01:35:23;;;;;;;21.10;15.07;;;;;;;3.97;97.84;103087.72;5013245;28;20234;-77
2022/11/13 01:38:07;;;;;;;21.00;15.30;;;;;;;3.97;98.10;103087.72;5014608;28;20265;-78
2022/11/13 01:40:51;;;;;;;22.37;15.27;;;;;;;3.94;97.80;103087.47;5014133;28;20232;-78
2022/11/13 01:43:37;;;;;;;21.30;15.93;;;;;;;3.96;98.30;103080.88;5015330;28;20214;-78
2022/11/13 01:46:28;;;;;;;19.70;14.43;;;;;;;3.96;98.07;103083.41;5014653;28;20210;-77
2022/11/13 01:49:32;;;;;;;21.17;15.37;;;;;;;3.96;97.81;103081.75;5010619;28;20198;-77
2022/11/13 01:52:20;;;;;;;19.47;14.37;;;;;;;3.95;97.88;103071.53;5013165;28;20284;-77
2022/11/13 01:55:10;;;;;;;19.90;15.10;;;;;;;3.94;97.75;103074.78;5013738;28;20218;-77
2022/11/13 01:57:56;;;;;;;19.80;14.47;;;;;;;3.93;98.01;103080.63;5007724;28;20230;-77
2022/11/13 02:00:40;;;;;;;20.40;15.57;;;;;;;3.92;97.80;103077.19;5013686;28;20201;-77
2022/11/13 02:03:24;;;;;;;22.77;15.03;;;;;;;3.92;97.73;103073.78;5014639;28;20261;-77
2022/11/13 02:06:08;;;;;;;21.33;15.03;;;;;;;3.91;97.32;103069.50;5011098;28;20190;-77
2022/11/13 02:08:53;;;;;;;19.70;14.60;;;;;;;3.85;97.99;103069.88;5006900;28;20345;-77
2022/11/13 02:11:37;;;;;;;16.00;12.87;;;;;;;3.85;97.29;103059.72;5013958;28;20213;-77
2022/11/13 02:14:24;;;;;;;18.40;14.20;;;;;;;3.81;97.32;103065.31;5009343;28;20244;-78
2022/11/13 02:17:13;;;;;;;17.90;13.47;;;;;;;3.82;97.75;103063.69;5012796;28;20306;-77
2022/11/13 02:20:00;;;;;;;18.40;13.63;;;;;;;3.81;97.73;103061.88;5012231;28;20206;-78
2022/11/13 02:23:03;;;;;;;18.57;13.93;;;;;;;3.83;97.66;103062.91;5013395;28;20198;-77
2022/11/13 02:25:51;;;;;;;20.80;15.13;;;;;;;3.80;97.41;103057.56;5005261;28;20277;-77
2022/11/13 02:28:35;;;;;;;23.07;15.43;;;;;;;3.83;98.05;103060.38;5013345;28;20277;-77
2022/11/13 02:31:19;;;;;;;20.03;14.47;;;;;;;3.82;97.99;103061.13;5012218;28;20971;-78
2022/11/13 02:34:03;;;;;;;22.20;14.53;;;;;;;3.83;97.96;103061.28;5012247;28;20702;-77
2022/11/13 02:36:47;;;;;;;18.53;14.90;;;;;;;3.85;97.92;103069.88;5012797;28;20369;-77
2022/11/13 02:39:31;;;;;;;21.47;15.20;;;;;;;3.83;97.87;103063.81;5013483;28;20198;-77
2022/11/13 02:42:15;;;;;;;20.93;14.80;;;;;;;3.82;97.30;103051.00;5010241;28;20199;-77
2022/11/13 02:45:00;;;;;;;18.00;13.80;;;;;;;3.80;97.89;103055.03;5013157;28;20218;-77
2022/11/13 02:47:44;;;;;;;19.10;14.50;;;;;;;3.83;98.11;103062.91;5011982;28;20245;-78
2022/11/13 02:50:29;;;;;;;18.60;14.03;;;;;;;3.83;97.82;103062.91;5013142;28;20249;-77
2022/11/13 02:53:13;;;;;;;18.80;13.87;;;;;;;3.81;98.12;103051.75;5013329;28;20205;-77
2022/11/13 02:55:56;;;;;;;18.27;14.17;;;;;;;3.80;98.31;103045.81;5008534;28;20774;-77
2022/11/13 02:58:40;;;;;;;19.37;13.90;;;;;;;3.80;97.80;103043.28;5010931;28;20697;-76
2022/11/13 03:01:24;;;;;;;20.73;14.33;;;;;;;3.79;97.73;103049.13;5011449;28;20301;-77
2022/11/13 03:04:09;;;;;;;22.10;14.73;;;;;;;3.81;98.33;103036.53;5010666;28;20515;-78
2022/11/13 03:06:53;;;;;;;19.07;14.93;;;;;;;3.77;98.09;103032.88;5008198;28;20194;-77
2022/11/13 03:09:38;;;;;;;17.87;14.30;;;;;;;3.78;98.02;103033.78;5013651;28;20695;-77
2022/11/13 03:12:22;;;;;;;20.67;13.77;;;;;;;3.78;98.09;103033.78;5012315;28;20213;-77
2022/11/13 03:15:07;;;;;;;18.23;14.33;;;;;;;3.75;98.39;103034.41;5014081;28;20254;-77
2022/11/13 03:17:51;;;;;;;16.73;13.43;;;;;;;3.73;98.31;103028.31;5005058;28;20189;-77
2022/11/13 03:20:38;;;;;;;19.43;14.13;;;;;;;3.69;98.09;103031.38;5012142;28;20687;-77
2022/11/13 03:23:22;;;;;;;19.70;14.47;;;;;;;3.68;97.35;103037.19;5010132;28;20198;-77
2022/11/13 03:26:09;;;;;;;17.47;13.93;;;;;;;3.64;97.38;103040.25;5010632;28;20198;-77
2022/11/13 03:28:53;;;;;;;18.20;13.63;;;;;;;3.62;97.60;103041.78;5012300;28;20215;-77
2022/11/13 03:31:37;;;;;;;18.93;13.60;;;;;;;3.58;97.37;103032.16;5011067;28;20633;-77
2022/11/13 03:34:21;;;;;;;17.47;13.00;;;;;;;3.53;97.36;103033.41;5005748;28;20225;-77
2022/11/13 03:37:05;;;;;;;18.03;13.53;;;;;;;3.50;96.79;103032.28;5011750;28;20222;-77
2022/11/13 03:39:49;;;;;;;16.93;13.03;;;;;;;3.50;97.25;103039.88;5015486;28;20214;-77
2022/11/13 03:42:33;;;;;;;15.87;12.67;;;;;;;3.42;96.45;103029.13;5015741;28;20284;-78
2022/11/13 03:45:17;;;;;;;16.60;13.33;;;;;;;3.42;96.65;103029.13;5011267;28;20703;-77
2022/11/13 03:48:01;;;;;;;20.07;14.30;;;;;;;3.41;96.66;103034.06;5015779;28;20256;-78
2022/11/13 03:50:49;;;;;;;22.57;14.97;;;;;;;3.35;96.78;103029.38;5014160;28;20197;-77
2022/11/13 03:53:33;;;;;;;21.60;14.97;;;;;;;3.37;96.56;103027.88;5014347;28;20206;-77
2022/11/13 03:56:17;;;;;;;21.27;15.10;;;;;;;3.33;96.26;103028.38;5008716;28;20309;-77
2022/11/13 03:59:01;;;;;;;24.10;15.43;;;;;;;3.33;96.19;103022.41;5014978;28;20193;-76
2022/11/13 04:01:45;;;;;;;25.30;17.07;;;;;;;3.30;96.90;103022.13;5011973;28;20186;-76
2022/11/13 04:04:29;;;;;;;21.53;15.93;;;;;;;3.28;96.62;103016.97;5011748;28;20273;-77
2022/11/13 04:07:12;;;;;;;25.20;16.60;;;;;;;3.28;96.62;103022.03;5007864;28;20618;-77
2022/11/13 04:09:56;;;;;;;20.87;15.37;;;;;;;3.23;97.46;103019.88;5009546;28;20218;-77
2022/11/13 04:12:40;;;;;;;22.80;16.23;;;;;;;3.23;97.06;103017.34;5009563;28;20218;-77
2022/11/13 04:15:24;;;;;;;20.97;14.70;;;;;;;3.24;96.62;103017.47;5011892;28;20268;-76
2022/11/13 04:18:08;;;;;;;23.97;15.20;;;;;;;3.24;97.31;103011.50;5011953;28;20609;-77
2022/11/13 04:21:01;;;;;;;23.20;15.30;;;;;;;3.23;97.21;103018.25;5010551;28;20245;-77
2022/11/13 04:23:45;;;;;;;20.40;14.50;;;;;;;3.22;97.12;103016.44;5011727;28;20186;-76
2022/11/13 04:26:29;;;;;;;23.93;16.10;;;;;;;3.20;97.37;103006.94;5007255;28;20699;-77
2022/11/13 04:29:13;;;;;;;19.37;13.80;;;;;;;3.21;96.86;103007.09;5012441;28;20269;-77
2022/11/13 04:31:57;;;;;;;20.53;14.43;;;;;;;3.26;97.69;103004.94;5011691;28;20252;-76
2022/11/13 04:34:41;;;;;;;19.00;14.57;;;;;;;3.27;97.78;102996.59;5003083;28;20221;-76
2022/11/13 04:37:25;;;;;;;20.50;14.70;;;;;;;3.30;98.42;102991.75;5006910;28;20865;-77
2022/11/13 04:40:09;;;;;;;21.03;15.80;;;;;;;3.30;99.08;102989.22;5014547;28;20246;-78
2022/11/13 04:42:53;;;;;;;20.73;15.40;;;;;;;3.27;98.88;102989.88;5017017;28;20221;-78
2022/11/13 04:45:37;;;;;;;23.97;16.40;;;;;;;3.24;99.06;102994.69;5014045;28;20221;-77
2022/11/13 04:48:21;;;;;;;23.10;16.07;;;;;;;3.24;99.26;102988.72;5013120;28;20305;-77
2022/11/13 04:51:05;;;;;;;22.43;16.20;;;;;;;3.23;99.71;102985.34;5014023;28;20329;-77
2022/11/13 04:53:49;;;;;;;21.77;15.87;;;;;;;3.19;99.36;102985.84;5011650;28;20240;-77
2022/11/13 04:56:33;;;;;;;24.00;17.07;;;;;;;3.21;99.61;102993.53;5015301;28;20744;-77
2022/11/13 04:59:18;;;;;;;26.80;17.87;;;;;;;3.21;99.33;102985.94;5014633;28;20279;-77
2022/11/13 05:02:02;;;;;;;25.77;17.40;;;;;;;3.21;99.75;102994.44;5016566;28;20241;-77
2022/11/13 05:04:47;;;;;;;27.13;17.20;;;;;;;3.17;100.00;102984.81;5012954;28;20233;-77
2022/11/13 05:07:31;;;;;;;32.50;17.83;;;;;;;3.19;100.00;102992.53;5015486;28;20587;-77
2022/11/13 05:10:15;;;;;;;30.20;17.83;;;;;;;3.15;99.58;102991.41;5012168;28;20211;-77
2022/11/13 05:12:59;;;;;;;31.37;20.03;;;;;;;3.20;99.72;102987.59;5010485;28;20254;-77
2022/11/13 05:15:43;;;;;;;35.50;19.67;;;;;;;3.22;100.00;102986.06;5010982;28;20714;-77
2022/11/13 05:18:27;;;;;;;25.00;18.33;;;;;;;3.19;100.00;102980.78;5014776;28;20256;-78
2022/11/13 05:21:11;;;;;;;27.70;18.40;;;;;;;3.17;100.00;102977.22;5010658;28;20338;-77
2022/11/13 05:23:55;;;;;;;26.47;17.83;;;;;;;3.12;100.00;102978.47;5013149;28;20241;-77
2022/11/13 05:26:39;;;;;;;24.73;16.93;;;;;;;3.05;100.00;102981.28;5012782;28;20213;-77
2022/11/13 05:29:24;;;;;;;25.80;17.07;;;;;;;3.03;100.00;102979.38;5011067;28;20230;-77
2022/11/13 05:32:08;;;;;;;22.83;16.37;;;;;;;3.00;100.00;102984.19;5011357;28;20591;-77
2022/11/13 05:34:52;;;;;;;20.77;15.90;;;;;;;2.93;100.00;102977.72;5011220;28;20273;-76
2022/11/13 05:37:35;;;;;;;22.73;16.23;;;;;;;2.91;99.61;102983.41;5011228;28;20543;-77
2022/11/13 05:40:20;;;;;;;22.80;16.07;;;;;;;2.90;100.00;102989.22;5010125;28;20202;-77
2022/11/13 05:43:03;;;;;;;22.97;17.00;;;;;;;2.90;99.32;102986.69;5006535;28;20198;-76
2022/11/13 05:45:47;;;;;;;23.23;16.27;;;;;;;2.84;99.42;102983.63;5010668;28;20233;-77
2022/11/13 05:48:32;;;;;;;23.00;15.70;;;;;;;2.85;98.74;102985.44;5010633;28;20573;-77
2022/11/13 05:51:22;;;;;;;22.50;15.67;;;;;;;2.84;98.23;102986.16;5011995;28;20298;-77
2022/11/13 05:54:06;;;;;;;19.63;14.83;;;;;;;2.79;98.11;102983.25;5011207;28;20221;-76
2022/11/13 05:56:50;;;;;;;20.37;14.70;;;;;;;2.81;98.28;102981.72;5010655;28;20214;-77
2022/11/13 05:59:34;;;;;;;20.57;15.50;;;;;;;2.81;98.30;102979.19;5011106;28;20201;-76
2022/11/13 06:02:17;;;;;;;20.67;14.97;;;;;;;2.82;98.10;102981.00;5011545;28;20191;-77
2022/11/13 06:05:01;;;;;;;21.30;15.57;;;;;;;2.84;98.43;102979.47;5010618;28;20226;-76
2022/11/13 06:07:48;;;;;;;21.90;15.40;;;;;;;2.80;98.57;102976.56;5004498;28;20218;-76
2022/11/13 06:10:32;;;;;;;25.80;17.30;;;;;;;2.83;98.36;102976.81;5009803;28;20186;-77
2022/11/13 06:13:16;;;;;;;24.90;17.30;;;;;;;2.81;98.85;102961.50;5011571;28;20202;-74
2022/11/13 06:16:06;;;;;;;28.27;19.30;;;;;;;2.80;98.90;102968.97;5010026;28;20777;-76
2022/11/13 06:18:54;;;;;;;26.77;18.70;;;;;;;2.81;98.32;102974.13;5009668;28;20243;-75
2022/11/13 06:21:39;;;;;;;28.47;20.07;;;;;;;2.96;98.93;102954.31;5010049;28;20615;-75
2022/11/13 06:24:23;;;;;;;26.87;17.90;;;;;;;2.94;99.40;102951.66;5009470;28;20305;-76
2022/11/13 06:27:07;;;;;;;23.07;16.13;;;;;;;2.99;100.00;102952.06;5010338;28;20365;-74
2022/11/13 06:29:51;;;;;;;26.50;16.97;;;;;;;3.03;99.67;102943.97;5010448;28;20217;-76
2022/11/13 06:32:35;;;;;;;26.70;17.43;;;;;;;3.05;100.00;102943.31;5010646;28;20190;-75
2022/11/13 06:35:19;;;;;;;25.17;17.07;;;;;;;3.06;100.00;102936.59;5007307;28;20221;-74
2022/11/13 06:38:03;;;;;;;23.67;17.13;;;;;;;3.08;100.00;102937.63;5003545;28;20190;-74
2022/11/13 06:40:47;;;;;;;23.47;16.10;;;;;;;2.94;100.00;102933.94;5004668;28;20273;-74
2022/11/13 06:43:31;;;;;;;24.60;17.03;;;;;;;2.89;100.00;102937.75;5006742;28;20937;-74
2022/11/13 06:46:18;;;;;;;24.43;16.80;;;;;;;2.84;100.00;102944.06;5009689;28;20213;-74
2022/11/13 06:49:02;;;;;;;25.17;16.83;;;;;;;2.83;100.00;102939.75;5005404;28;20210;-74
2022/11/13 06:51:46;;;;;;;27.77;17.53;;;;;;;2.86;100.00;102944.19;5009794;28;20268;-74
2022/11/13 06:54:30;;;;;;;25.70;16.17;;;;;;;2.83;100.00;102949.88;5008742;28;20742;-74
2022/11/13 06:57:14;;;;;;;25.10;16.93;;;;;;;2.85;100.00;102962.66;5007968;28;20199;-75
2022/11/13 06:59:58;;;;;;;25.20;17.20;;;;;;;2.88;100.00;102968.84;5009934;28;20198;-74
2022/11/13 07:02:42;;;;;;;26.10;17.00;;;;;;;2.96;100.00;102965.34;5003987;28;20199;-77
2022/11/13 07:05:26;;;;;;;24.97;16.77;;;;;;;3.00;100.00;102964.84;5014503;28;20225;-77
2022/11/13 07:08:11;;;;;;;25.60;16.83;;;;;;;3.13;100.00;102967.59;5003463;28;20229;-76
2022/11/13 07:10:56;;;;;;;27.47;18.73;;;;;;;3.31;100.00;102961.53;5008835;28;20289;-75
2022/11/13 07:13:40;;;;;;;30.80;19.90;;;;;;;3.51;100.00;102963.16;5011578;28;20237;-77
2022/11/13 07:16:24;;;;;;;36.20;22.10;;;;;;;3.75;100.00;102967.66;5020766;28;20217;-77
2022/11/13 07:19:08;;;;;;;35.30;21.43;;;;;;;4.02;100.00;102957.19;5015693;28;20198;-77
2022/11/13 07:21:52;;;;;;;33.37;20.97;;;;;;;3.97;100.00;102956.84;5012921;28;20714;-76
2022/11/13 07:24:36;;;;;;;33.53;21.40;;;;;;;4.03;100.00;102959.84;5000753;28;20280;-75
2022/11/13 07:27:20;;;;;;;39.60;22.77;;;;;;;4.25;100.00;102962.44;5012295;28;20218;-75
2022/11/13 07:30:05;;;;;;;44.97;23.50;;;;;;;4.41;100.00;102967.91;5012326;28;20226;-76
2022/11/13 07:32:48;;;;;;;42.13;23.70;;;;;;;4.56;100.00;102964.91;5009883;28;20258;-74
2022/11/13 07:35:32;;;;;;;43.13;24.17;;;;;;;4.63;100.00;102964.63;5010743;28;20343;-76
2022/11/13 07:38:16;;;;;;;47.43;25.53;;;;;;;4.79;100.00;102959.09;5011108;28;20309;-74
2022/11/13 07:41:00;;;;;;;53.70;24.87;;;;;;;5.00;100.00;102963.22;5010052;28;20206;-77
2022/11/13 07:43:45;;;;;;;50.20;23.53;;;;;;;5.05;100.00;102960.28;5016048;28;20197;-76
2022/11/13 07:46:29;;;;;;;53.90;24.30;;;;;;;5.10;100.00;102958.97;5019359;28;20626;-76
2022/11/13 07:49:13;;;;;;;56.33;24.37;;;;;;;5.21;100.00;102953.03;5019229;28;20226;-77
2022/11/13 07:51:56;;;;;;;57.27;24.63;;;;;;;5.32;100.00;102964.88;5019040;28;20825;-76
2022/11/13 07:54:40;;;;;;;52.47;23.57;;;;;;;5.37;100.00;102957.59;5016027;28;20281;-76
2022/11/13 07:57:26;;;;;;;59.73;24.67;;;;;;;5.44;100.00;102952.19;5016924;28;20197;-77
2022/11/13 08:00:10;;;;;;;55.47;23.03;;;;;;;5.56;100.00;102964.13;5018577;28;20691;-77
2022/11/13 08:02:55;;;;;;;69.40;28.53;;;;;;;5.65;100.00;102974.97;5018756;28;20242;-77
2022/11/13 08:05:40;;;;;;;61.47;25.13;;;;;;;5.70;100.00;102970.22;5020167;28;20230;-78
2022/11/13 08:08:24;;;;;;;62.53;25.17;;;;;;;5.77;100.00;102962.28;5022427;28;20257;-77
2022/11/13 08:11:08;;;;;;;65.17;25.33;;;;;;;5.86;100.00;102965.53;5022452;28;20194;-78
2022/11/13 08:13:54;;;;;;;67.53;24.13;;;;;;;5.91;100.00;102964.19;5023645;28;20210;-79
2022/11/13 08:16:41;;;;;;;68.87;24.33;;;;;;;5.98;100.00;102966.41;5020688;28;20198;-79
2022/11/13 08:19:25;;;;;;;78.57;24.43;;;;;;;6.00;100.00;102973.38;5009836;28;20234;-78
2022/11/13 08:22:09;;;;;;;74.73;27.23;;;;;;;6.06;100.00;102966.16;5024953;28;20201;-78
2022/11/13 08:24:54;;;;;;;73.40;27.83;;;;;;;6.13;100.00;102963.28;5016920;28;20314;-79
2022/11/13 08:27:37;;;;;;;77.00;27.53;;;;;;;6.20;100.00;102957.88;5023924;28;20254;-78
2022/11/13 08:30:24;;;;;;;74.53;28.27;;;;;;;6.27;100.00;102966.81;5031990;28;20695;-78
2022/11/13 08:33:08;;;;;;;71.50;27.70;;;;;;;6.33;100.00;102974.88;5030039;28;20223;-79
2022/11/13 08:35:58;;;;;;;78.20;28.93;;;;;;;6.37;100.00;102970.13;5040833;28;20245;-78
2022/11/13 08:38:43;;;;;;;69.27;27.07;;;;;;;6.43;100.00;102964.53;5038203;28;20193;-79
2022/11/13 08:41:27;;;;;;;72.33;26.97;;;;;;;6.48;100.00;102958.13;5035342;28;20837;-79
2022/11/13 08:44:11;;;;;;;77.73;27.43;;;;;;;6.52;100.00;102966.09;5037743;28;20217;-78
2022/11/13 08:46:55;;;;;;;75.83;30.30;;;;;;;6.60;100.00;102964.06;5020865;28;20226;-78
2022/11/13 08:49:40;;;;;;;76.03;29.50;;;;;;;6.63;100.00;102957.53;5009520;28;20237;-78
2022/11/13 08:52:23;;;;;;;85.00;29.57;;;;;;;6.71;100.00;102947.84;5034455;28;20221;-76
2022/11/13 08:55:07;;;;;;;85.07;30.93;;;;;;;6.81;100.00;102957.91;5023696;28;20265;-76
2022/11/13 08:57:52;;;;;;;82.17;31.30;;;;;;;6.85;100.00;102957.31;5020423;28;20225;-76
2022/11/13 09:00:36;;;;;;;78.57;30.23;;;;;;;6.91;100.00;102950.13;5023648;28;20256;-76
2022/11/13 09:03:20;;;;;;;84.50;33.03;;;;;;;6.98;100.00;102948.09;5021487;28;20714;-77
2022/11/13 09:06:08;;;;;;;87.53;32.60;;;;;;;7.06;100.00;102944.41;5018549;28;20222;-78
2022/11/13 09:08:52;;;;;;;73.67;32.03;;;;;;;7.06;100.00;102939.31;5023609;28;20245;-78
2022/11/13 09:11:35;;;;;;;76.87;33.57;;;;;;;7.10;100.00;102935.28;5021694;28;20253;-79
2022/11/13 09:14:20;;;;;;;80.00;34.67;;;;;;;7.14;100.00;102933.03;5029399;28;20221;-79
2022/11/13 09:17:04;;;;;;;78.90;34.10;;;;;;;7.22;100.00;102936.97;5026761;28;20252;-78
2022/11/13 09:19:48;;;;;;;82.27;34.13;;;;;;;7.30;100.00;102940.91;5022984;28;20695;-79
2022/11/13 09:22:33;;;;;;;73.17;32.63;;;;;;;7.31;100.00;102940.13;5023651;28;20206;-79
2022/11/13 09:25:17;;;;;;;69.80;32.50;;;;;;;7.30;100.00;102943.47;5024200;28;20220;-79
2022/11/13 09:28:02;;;;;;;72.60;33.90;;;;;;;7.36;100.00;102942.97;5025951;28;20614;-77
2022/11/13 09:30:46;;;;;;;68.67;33.83;;;;;;;7.39;100.00;102946.63;5021416;28;20817;-77
2022/11/13 09:33:30;;;;;;;75.87;33.53;;;;;;;7.41;100.00;102947.59;5025425;28;20208;-78
2022/11/13 09:36:15;;;;;;;72.77;34.47;;;;;;;7.39;100.00;102943.19;5023146;28;20209;-78
2022/11/13 09:38:59;;;;;;;68.13;31.03;;;;;;;7.43;100.00;102948.59;5016523;28;20194;-77
2022/11/13 09:41:52;;;;;;;73.37;33.73;;;;;;;7.41;100.00;102954.38;5016489;28;20242;-77
2022/11/13 09:44:46;;;;;;;64.53;30.90;;;;;;;7.39;100.00;102961.03;5015545;28;20239;-78
2022/11/13 09:47:35;;;;;;;69.80;31.23;;;;;;;7.46;100.00;102960.66;5013046;28;20265;-78
2022/11/13 09:50:25;;;;;;;65.70;32.17;;;;;;;7.44;100.00;102959.66;5017019;28;20241;-78
2022/11/13 09:53:12;;;;;;;62.10;32.93;;;;;;;7.45;100.00;102962.31;5009295;28;20249;-77
2022/11/13 09:56:19;;;;;;;61.90;31.47;;;;;;;7.46;100.00;102958.09;5021612;28;20812;-78
2022/11/13 09:59:15;;;;;;;60.43;30.00;;;;;;;7.48;100.00;102967.63;5015949;28;20242;-78
2022/11/13 10:01:59;;;;;;;55.77;29.10;;;;;;;7.40;100.00;102953.47;5008919;28;21471;-79
2022/11/13 10:05:17;;;;;;;50.10;27.93;;;;;;;7.37;100.00;102960.91;5026980;28;20808;-78
2022/11/13 10:08:17;;;;;;;51.50;28.57;;;;;;;7.36;100.00;102968.44;5020486;28;20249;-78
2022/11/13 10:11:13;;;;;;;50.93;29.23;;;;;;;7.39;100.00;102954.28;5016561;28;20249;-78
2022/11/13 10:14:15;;;;;;;51.77;28.83;;;;;;;7.45;100.00;102957.22;5024000;28;20197;-77
2022/11/13 10:17:14;;;;;;;53.80;30.20;;;;;;;7.43;100.00;102956.25;5022221;28;20193;-79
2022/11/13 10:20:01;;;;;;;47.97;27.00;;;;;;;7.46;100.00;102951.31;5010134;28;20206;-78
2022/11/13 10:23:01;;;;;;;47.03;28.23;;;;;;;7.52;100.00;102948.31;5023578;28;20234;-78
2022/11/13 10:25:46;;;;;;;53.77;29.83;;;;;;;7.54;100.00;102944.19;5023007;28;20273;-79
2022/11/13 10:28:31;;;;;;;51.70;28.83;;;;;;;7.59;100.00;102946.25;5023212;28;20299;-78
2022/11/13 10:31:15;;;;;;;56.43;29.77;;;;;;;7.56;100.00;102946.03;5015309;28;20340;-78
2022/11/13 10:34:00;;;;;;;53.80;30.13;;;;;;;7.64;100.00;102944.00;5021304;28;20194;-79
2022/11/13 10:37:20;;;;;;;53.13;29.03;;;;;;;7.63;100.00;102938.03;5011589;28;20584;-79
2022/11/13 10:40:04;;;;;;;50.70;29.33;;;;;;;7.71;100.00;102938.50;5013086;28;20226;-79
2022/11/13 10:42:48;;;;;;;54.90;29.53;;;;;;;7.67;100.00;102934.88;5014285;28;20198;-79
2022/11/13 10:45:32;;;;;;;53.27;31.13;;;;;;;7.76;100.00;102929.47;5022835;28;20331;-78
2022/11/13 10:48:21;;;;;;;53.27;31.60;;;;;;;7.80;100.00;102923.81;5012919;28;20218;-78
2022/11/13 10:51:21;;;;;;;55.67;31.80;;;;;;;7.80;100.00;102914.50;5012567;28;20880;-77
2022/11/13 10:54:19;;;;;;;55.23;31.77;;;;;;;7.87;100.00;102908.13;5027435;28;20218;-79
2022/11/13 10:57:16;;;;;;;55.60;31.40;;;;;;;7.92;100.00;102905.06;5021541;28;20191;-77
2022/11/13 11:00:01;;;;;;;49.90;30.23;;;;;;;7.97;100.00;102895.16;5020389;28;20682;-78
2022/11/13 11:02:49;;;;;;;56.40;34.40;;;;;;;8.00;100.00;102892.78;5027113;28;20201;-78
2022/11/13 11:05:33;;;;;;;53.73;31.93;;;;;;;8.01;100.00;102887.78;5023130;28;20225;-77
2022/11/13 11:08:22;;;;;;;43.27;27.70;;;;;;;8.06;100.00;102886.38;5018258;28;20222;-79
2022/11/13 11:14:18;;;;;;;42.90;27.43;;;;;;;8.14;100.00;102876.66;5019415;28;20221;-79
2022/11/13 11:17:04;;;;;;;40.73;28.03;;;;;;;8.21;100.00;102871.19;5019199;28;20228;-79
2022/11/13 11:19:59;;;;;;;44.33;29.93;;;;;;;8.27;100.00;102869.88;5019171;28;20232;-78
2022/11/13 11:22:46;;;;;;;37.93;25.50;;;;;;;8.30;100.00;102851.34;5015142;28;20201;-77
2022/11/13 11:25:42;;;;;;;36.97;25.37;;;;;;;8.32;100.00;102859.94;5020198;28;20281;-77
2022/11/13 11:28:36;;;;;;;32.47;22.60;;;;;;;8.31;100.00;102855.63;5016383;28;20229;-78
2022/11/13 11:31:59;;;;;;;38.00;25.20;;;;;;;8.27;100.00;102856.25;5021248;28;20210;-79
2022/11/13 11:34:49;;;;;;;33.43;23.63;;;;;;;8.29;100.00;102860.66;5010528;28;20230;-78
2022/11/13 11:37:56;;;;;;;30.13;22.60;;;;;;;8.35;100.00;102857.59;5010601;28;20233;-78
2022/11/13 11:41:15;;;;;;;30.90;22.37;;;;;;;8.39;100.00;102850.19;5015863;28;20201;-78
2022/11/13 11:44:02;;;;;;;30.83;22.07;;;;;;;8.41;100.00;102848.63;5024621;28;20194;-78
2022/11/13 11:46:46;;;;;;;30.87;21.00;;;;;;;8.42;100.00;102844.38;5019028;28;20209;-78
2022/11/13 11:49:31;;;;;;;27.50;20.53;;;;;;;8.45;100.00;102845.47;5015133;28;20213;-79
2022/11/13 11:52:41;;;;;;;29.77;21.50;;;;;;;8.51;100.00;102840.72;5018074;28;20202;-77
2022/11/13 11:55:47;;;;;;;29.10;21.00;;;;;;;8.57;100.00;102837.66;5019897;28;20645;-78
2022/11/13 11:58:39;;;;;;;27.47;18.73;;;;;;;8.56;100.00;102834.22;5021417;28;20201;-79
2022/11/13 12:01:35;;;;;;;28.57;20.53;;;;;;;8.61;100.00;102837.94;5026343;28;20194;-78
2022/11/13 12:04:59;;;;;;;28.93;19.47;;;;;;;8.65;100.00;102826.22;5021869;28;20272;-78
2022/11/13 12:08:07;;;;;;;24.77;18.27;;;;;;;8.69;100.00;102830.72;5022914;28;20218;-77
2022/11/13 12:11:13;;;;;;;26.27;19.23;;;;;;;8.72;100.00;102813.03;5024343;28;20193;-78
2022/11/13 12:14:07;;;;;;;24.60;18.40;;;;;;;8.79;99.32;102812.56;5018063;28;20202;-78
2022/11/13 12:16:51;;;;;;;26.30;19.30;;;;;;;8.76;99.79;102805.63;5017700;28;20858;-79
2022/11/13 12:19:57;;;;;;;24.40;18.10;;;;;;;8.86;99.88;102799.38;5025116;28;20182;-78
2022/11/13 12:23:05;;;;;;;27.63;19.83;;;;;;;8.90;99.81;102791.09;5016467;28;20201;-78
2022/11/13 12:26:01;;;;;;;22.60;17.03;;;;;;;8.95;99.33;102798.25;5014804;28;20221;-77
2022/11/13 12:28:51;;;;;;;23.27;18.30;;;;;;;8.93;98.62;102793.81;5022524;28;20233;-78
2022/11/13 12:31:42;;;;;;;25.70;18.70;;;;;;;8.99;98.57;102797.59;5022575;28;20202;-78
2022/11/13 12:34:42;;;;;;;24.37;17.17;;;;;;;9.00;99.01;102795.94;5023754;28;20285;-78
2022/11/13 12:37:41;;;;;;;22.83;17.17;;;;;;;9.07;99.09;102787.84;5022762;28;20250;-78
2022/11/13 12:40:48;;;;;;;24.00;18.40;;;;;;;9.13;98.55;102790.72;5023643;28;20205;-78
2022/11/13 12:43:51;;;;;;;24.67;18.40;;;;;;;9.16;98.53;102789.22;5024141;28;20209;-78
2022/11/13 12:46:38;;;;;;;28.97;21.60;;;;;;;9.15;99.08;102789.13;5019218;28;20755;-77
2022/11/13 12:49:22;;;;;;;28.17;19.27;;;;;;;9.21;98.87;102776.72;5023429;28;20225;-78